sensor_id;sensor_type;location;lat;lon;timestamp;pressure;altitude;pressure_sealevel;temperature;humidity
29315;BME280;16320;53.954;9.506;2022-09-29T10:36:13;100125.78;;;9.65;100.00
29315;BME280;16320;53.954;9.506;2022-09-29T10:39:46;100128.50;;;9.63;100.00
29315;BME280;16320;53.954;9.506;2022-09-29T10:42:56;100143.06;;;9.53;100.00
29315;BME280;16320;53.954;9.506;2022-09-29T10:46:01;100131.25;;;9.46;100.00
29315;BME280;16320;53.954;9.506;2022-09-29T10:49:21;100149.69;;;9.44;100.00
29315;BME280;16320;53.954;9.506;2022-09-29T10:52:27;100148.84;;;9.44;100.00
29315;BME280;16320;53.954;9.506;2022-09-29T10:55:34;100145.28;;;9.45;100.00
29315;BME280;16320;53.954;9.506;2022-09-29T10:58:43;100151.69;;;9.55;100.00
29315;BME280;16320;53.954;9.506;2022-09-29T11:02:22;100149.69;;;9.60;100.00
29315;BME280;16320;53.954;9.506;2022-09-29T11:05:28;100156.94;;;9.55;100.00
29315;BME280;16320;53.954;9.506;2022-09-29T11:08:57;100149.84;;;9.57;100.00
29315;BME280;16320;53.954;9.506;2022-09-29T11:12:34;100150.91;;;9.69;100.00
29315;BME280;16320;53.954;9.506;2022-09-29T11:16:54;100151.25;;;9.79;100.00
29315;BME280;16320;53.954;9.506;2022-09-29T11:52:04;100172.69;;;10.01;100.00
29315;BME280;16320;53.954;9.506;2022-09-29T12:11:53;100181.91;;;9.93;100.00
29315;BME280;16320;53.954;9.506;2022-09-29T12:15:55;100185.66;;;9.88;100.00
29315;BME280;16320;53.954;9.506;2022-09-29T12:19:35;100176.47;;;9.96;100.00
29315;BME280;16320;53.954;9.506;2022-09-29T12:26:53;100179.81;;;10.14;100.00
29315;BME280;16320;53.954;9.506;2022-09-29T12:36:24;100172.38;;;10.22;100.00
29315;BME280;16320;53.954;9.506;2022-09-29T12:39:36;100174.50;;;10.30;100.00
29315;BME280;16320;53.954;9.506;2022-09-29T12:43:21;100170.47;;;10.24;100.00
29315;BME280;16320;53.954;9.506;2022-09-29T12:50:18;100175.47;;;10.29;100.00
29315;BME280;16320;53.954;9.506;2022-09-29T12:54:15;100168.44;;;10.29;100.00
29315;BME280;16320;53.954;9.506;2022-09-29T12:57:35;100177.22;;;10.28;100.00
29315;BME280;16320;53.954;9.506;2022-09-29T13:00:44;100181.56;;;10.29;100.00
29315;BME280;16320;53.954;9.506;2022-09-29T13:15:47;100186.69;;;10.47;100.00
29315;BME280;16320;53.954;9.506;2022-09-29T13:30:18;100206.19;;;10.57;100.00
29315;BME280;16320;53.954;9.506;2022-09-29T13:33:24;100196.53;;;10.57;100.00
29315;BME280;16320;53.954;9.506;2022-09-29T13:36:38;100210.69;;;10.55;100.00
29315;BME280;16320;53.954;9.506;2022-09-29T13:40:06;100206.94;;;10.59;100.00
29315;BME280;16320;53.954;9.506;2022-09-29T13:43:42;100203.75;;;10.54;100.00
29315;BME280;16320;53.954;9.506;2022-09-29T13:47:32;100205.81;;;10.49;100.00
29315;BME280;16320;53.954;9.506;2022-09-29T13:50:46;100201.38;;;10.49;100.00
29315;BME280;16320;53.954;9.506;2022-09-29T13:57:27;100202.06;;;10.53;100.00
29315;BME280;16320;53.954;9.506;2022-09-29T14:00:32;100204.50;;;10.56;100.00
29315;BME280;16320;53.954;9.506;2022-09-29T14:03:42;100203.75;;;10.54;100.00
29315;BME280;16320;53.954;9.506;2022-09-29T14:06:47;100206.75;;;10.62;100.00
29315;BME280;16320;53.954;9.506;2022-09-29T14:09:52;100199.75;;;10.62;100.00
29315;BME280;16320;53.954;9.506;2022-09-29T14:20:29;100208.06;;;10.55;100.00
29315;BME280;16320;53.954;9.506;2022-09-29T14:23:49;100207.13;;;10.56;100.00
29315;BME280;16320;53.954;9.506;2022-09-29T14:30:42;100216.59;;;10.58;100.00
29315;BME280;16320;53.954;9.506;2022-09-29T14:33:49;100218.31;;;10.59;100.00
29315;BME280;16320;53.954;9.506;2022-09-29T14:36:57;100229.66;;;10.60;100.00
29315;BME280;16320;53.954;9.506;2022-09-29T14:40:07;100227.03;;;10.60;100.00
29315;BME280;16320;53.954;9.506;2022-09-29T14:43:36;100224.22;;;10.63;100.00
29315;BME280;16320;53.954;9.506;2022-09-29T14:46:52;100228.41;;;10.66;100.00
29315;BME280;16320;53.954;9.506;2022-09-29T14:51:06;100232.66;;;10.68;100.00
29315;BME280;16320;53.954;9.506;2022-09-29T14:54:52;100244.09;;;10.67;100.00
29315;BME280;16320;53.954;9.506;2022-09-29T14:58:23;100243.91;;;10.70;100.00
29315;BME280;16320;53.954;9.506;2022-09-29T15:01:32;100238.09;;;10.65;100.00
29315;BME280;16320;53.954;9.506;2022-09-29T15:04:44;100245.50;;;10.58;100.00
29315;BME280;16320;53.954;9.506;2022-09-29T15:07:50;100242.88;;;10.58;100.00
29315;BME280;16320;53.954;9.506;2022-09-29T15:10:55;100240.16;;;10.60;100.00
29315;BME280;16320;53.954;9.506;2022-09-29T15:14:00;100246.31;;;10.59;100.00
29315;BME280;16320;53.954;9.506;2022-09-29T15:17:34;100251.00;;;10.54;100.00
29315;BME280;16320;53.954;9.506;2022-09-29T15:20:59;100247.63;;;10.52;100.00
29315;BME280;16320;53.954;9.506;2022-09-29T15:27:14;100251.38;;;10.48;100.00
29315;BME280;16320;53.954;9.506;2022-09-29T15:30:21;100254.06;;;10.46;100.00
29315;BME280;16320;53.954;9.506;2022-09-29T15:33:29;100261.22;;;10.44;100.00
29315;BME280;16320;53.954;9.506;2022-09-29T15:36:37;100258.66;;;10.42;100.00
29315;BME280;16320;53.954;9.506;2022-09-29T15:39:48;100260.56;;;10.40;100.00
29315;BME280;16320;53.954;9.506;2022-09-29T15:42:59;100268.88;;;10.33;100.00
29315;BME280;16320;53.954;9.506;2022-09-29T15:49:51;100265.97;;;10.21;100.00
29315;BME280;16320;53.954;9.506;2022-09-29T15:53:03;100273.00;;;10.21;100.00
29315;BME280;16320;53.954;9.506;2022-09-29T15:56:09;100272.28;;;10.19;100.00
29315;BME280;16320;53.954;9.506;2022-09-29T15:59:18;100277.69;;;10.16;100.00
29315;BME280;16320;53.954;9.506;2022-09-29T16:02:37;100288.19;;;10.16;100.00
29315;BME280;16320;53.954;9.506;2022-09-29T16:06:29;100285.56;;;10.16;100.00
29315;BME280;16320;53.954;9.506;2022-09-29T16:09:39;100286.47;;;10.15;100.00
29315;BME280;16320;53.954;9.506;2022-09-29T16:13:18;100290.63;;;10.19;100.00
29315;BME280;16320;53.954;9.506;2022-09-29T16:16:31;100291.22;;;10.24;100.00
29315;BME280;16320;53.954;9.506;2022-09-29T16:19:36;100304.78;;;10.32;100.00
29315;BME280;16320;53.954;9.506;2022-09-29T16:22:47;100302.06;;;10.34;100.00
29315;BME280;16320;53.954;9.506;2022-09-29T16:26:11;100302.72;;;10.37;100.00
29315;BME280;16320;53.954;9.506;2022-09-29T16:38:57;100310.78;;;10.34;100.00
29315;BME280;16320;53.954;9.506;2022-09-29T16:42:03;100322.81;;;10.38;100.00
29315;BME280;16320;53.954;9.506;2022-09-29T16:45:13;100327.09;;;10.39;100.00
29315;BME280;16320;53.954;9.506;2022-09-29T16:48:21;100330.31;;;10.44;100.00
29315;BME280;16320;53.954;9.506;2022-09-29T16:51:26;100327.75;;;10.43;100.00
29315;BME280;16320;53.954;9.506;2022-09-29T16:54:46;100327.59;;;10.46;100.00
29315;BME280;16320;53.954;9.506;2022-09-29T17:01:02;100327.41;;;10.49;100.00
29315;BME280;16320;53.954;9.506;2022-09-29T17:04:08;100337.25;;;10.46;100.00
29315;BME280;16320;53.954;9.506;2022-09-29T17:07:16;100345.13;;;10.46;100.00
29315;BME280;16320;53.954;9.506;2022-09-29T17:10:21;100338.19;;;10.44;100.00
29315;BME280;16320;53.954;9.506;2022-09-29T17:13:32;100339.81;;;10.47;100.00
29315;BME280;16320;53.954;9.506;2022-09-29T17:16:36;100345.72;;;10.51;100.00
29315;BME280;16320;53.954;9.506;2022-09-29T17:19:41;100344.03;;;10.50;100.00
29315;BME280;16320;53.954;9.506;2022-09-29T17:22:46;100353.84;;;10.46;100.00
29315;BME280;16320;53.954;9.506;2022-09-29T17:25:52;100359.03;;;10.48;100.00
29315;BME280;16320;53.954;9.506;2022-09-29T17:29:16;100354.88;;;10.43;100.00
29315;BME280;16320;53.954;9.506;2022-09-29T17:32:21;100359.28;;;10.43;100.00
29315;BME280;16320;53.954;9.506;2022-09-29T17:35:33;100360.16;;;10.43;100.00
29315;BME280;16320;53.954;9.506;2022-09-29T17:38:38;100361.81;;;10.44;100.00
29315;BME280;16320;53.954;9.506;2022-09-29T17:41:43;100367.06;;;10.44;100.00
29315;BME280;16320;53.954;9.506;2022-09-29T17:44:49;100382.06;;;10.42;100.00
29315;BME280;16320;53.954;9.506;2022-09-29T17:47:54;100376.06;;;10.40;100.00
29315;BME280;16320;53.954;9.506;2022-09-29T17:50:59;100373.34;;;10.42;100.00
29315;BME280;16320;53.954;9.506;2022-09-29T17:54:03;100386.41;;;10.43;100.00
29315;BME280;16320;53.954;9.506;2022-09-29T17:57:22;100380.28;;;10.43;100.00
29315;BME280;16320;53.954;9.506;2022-09-29T18:00:35;100389.84;;;10.44;100.00
29315;BME280;16320;53.954;9.506;2022-09-29T18:03:41;100392.47;;;10.44;100.00
29315;BME280;16320;53.954;9.506;2022-09-29T18:06:46;100387.97;;;10.46;100.00
29315;BME280;16320;53.954;9.506;2022-09-29T18:09:50;100387.91;;;10.48;100.00
29315;BME280;16320;53.954;9.506;2022-09-29T18:12:57;100396.56;;;10.50;100.00
29315;BME280;16320;53.954;9.506;2022-09-29T18:16:02;100394.84;;;10.49;100.00
29315;BME280;16320;53.954;9.506;2022-09-29T18:19:14;100400.09;;;10.49;100.00
29315;BME280;16320;53.954;9.506;2022-09-29T18:22:22;100403.06;;;10.42;100.00
29315;BME280;16320;53.954;9.506;2022-09-29T18:25:29;100402.31;;;10.40;100.00
29315;BME280;16320;53.954;9.506;2022-09-29T18:28:34;100409.44;;;10.38;100.00
29315;BME280;16320;53.954;9.506;2022-09-29T18:31:38;100415.53;;;10.39;100.00
29315;BME280;16320;53.954;9.506;2022-09-29T18:34:42;100414.00;;;10.35;100.00
29315;BME280;16320;53.954;9.506;2022-09-29T18:37:47;100417.41;;;10.37;100.00
29315;BME280;16320;53.954;9.506;2022-09-29T18:40:53;100415.88;;;10.33;100.00
29315;BME280;16320;53.954;9.506;2022-09-29T18:43:59;100413.47;;;10.28;100.00
29315;BME280;16320;53.954;9.506;2022-09-29T18:47:04;100419.81;;;10.24;100.00
29315;BME280;16320;53.954;9.506;2022-09-29T18:50:21;100419.06;;;10.22;100.00
29315;BME280;16320;53.954;9.506;2022-09-29T18:53:26;100419.16;;;10.20;100.00
29315;BME280;16320;53.954;9.506;2022-09-29T18:56:31;100420.16;;;10.18;100.00
29315;BME280;16320;53.954;9.506;2022-09-29T18:59:38;100417.53;;;10.18;100.00
29315;BME280;16320;53.954;9.506;2022-09-29T19:02:44;100425.66;;;10.13;100.00
29315;BME280;16320;53.954;9.506;2022-09-29T19:05:53;100423.09;;;10.12;100.00
29315;BME280;16320;53.954;9.506;2022-09-29T19:08:58;100424.97;;;10.10;100.00
29315;BME280;16320;53.954;9.506;2022-09-29T19:12:02;100433.09;;;10.05;100.00
29315;BME280;16320;53.954;9.506;2022-09-29T19:15:07;100439.34;;;10.02;100.00
29315;BME280;16320;53.954;9.506;2022-09-29T19:18:20;100434.38;;;9.98;100.00
29315;BME280;16320;53.954;9.506;2022-09-29T19:21:27;100439.69;;;9.96;100.00
29315;BME280;16320;53.954;9.506;2022-09-29T19:24:32;100449.41;;;9.94;100.00
29315;BME280;16320;53.954;9.506;2022-09-29T19:27:39;100441.53;;;9.94;100.00
29315;BME280;16320;53.954;9.506;2022-09-29T19:30:47;100450.34;;;9.93;100.00
29315;BME280;16320;53.954;9.506;2022-09-29T19:33:52;100452.22;;;9.91;100.00
29315;BME280;16320;53.954;9.506;2022-09-29T19:36:59;100460.16;;;9.89;100.00
29315;BME280;16320;53.954;9.506;2022-09-29T19:40:06;100462.00;;;9.87;100.00
29315;BME280;16320;53.954;9.506;2022-09-29T19:43:12;100471.66;;;9.87;100.00
29315;BME280;16320;53.954;9.506;2022-09-29T19:46:19;100475.13;;;9.87;100.00
29315;BME280;16320;53.954;9.506;2022-09-29T19:49:24;100473.38;;;9.88;100.00
29315;BME280;16320;53.954;9.506;2022-09-29T19:52:29;100481.22;;;9.88;100.00
29315;BME280;16320;53.954;9.506;2022-09-29T19:55:39;100484.69;;;9.88;100.00
29315;BME280;16320;53.954;9.506;2022-09-29T19:58:44;100487.25;;;9.90;100.00
29315;BME280;16320;53.954;9.506;2022-09-29T20:01:49;100481.84;;;9.93;100.00
29315;BME280;16320;53.954;9.506;2022-09-29T20:05:05;100491.31;;;9.96;100.00
29315;BME280;16320;53.954;9.506;2022-09-29T20:08:38;100490.47;;;9.95;100.00
29315;BME280;16320;53.954;9.506;2022-09-29T20:11:43;100492.16;;;9.96;100.00
29315;BME280;16320;53.954;9.506;2022-09-29T20:14:50;100497.25;;;9.99;100.00
29315;BME280;16320;53.954;9.506;2022-09-29T20:17:54;100500.63;;;10.01;100.00
29315;BME280;16320;53.954;9.506;2022-09-29T20:21:07;100500.47;;;10.04;100.00
29315;BME280;16320;53.954;9.506;2022-09-29T20:24:15;100506.50;;;10.06;100.00
29315;BME280;16320;53.954;9.506;2022-09-29T20:27:21;100500.25;;;10.09;100.00
29315;BME280;16320;53.954;9.506;2022-09-29T20:30:26;100508.94;;;10.10;100.00
29315;BME280;16320;53.954;9.506;2022-09-29T20:33:31;100508.13;;;10.09;100.00
29315;BME280;16320;53.954;9.506;2022-09-29T20:36:37;100508.94;;;10.10;100.00
29315;BME280;16320;53.954;9.506;2022-09-29T20:39:41;100514.19;;;10.10;100.00
29315;BME280;16320;53.954;9.506;2022-09-29T20:42:46;100517.59;;;10.12;100.00
29315;BME280;16320;53.954;9.506;2022-09-29T20:45:59;100522.06;;;10.10;100.00
29315;BME280;16320;53.954;9.506;2022-09-29T20:49:08;100517.75;;;10.08;100.00
29315;BME280;16320;53.954;9.506;2022-09-29T20:52:13;100523.00;;;10.08;100.00
29315;BME280;16320;53.954;9.506;2022-09-29T20:55:17;100523.16;;;10.05;100.00
29315;BME280;16320;53.954;9.506;2022-09-29T20:58:21;100531.81;;;10.07;100.00
29315;BME280;16320;53.954;9.506;2022-09-29T21:01:29;100535.19;;;10.10;100.00
29315;BME280;16320;53.954;9.506;2022-09-29T21:04:35;100530.78;;;10.10;100.00
29315;BME280;16320;53.954;9.506;2022-09-29T21:07:39;100526.31;;;10.12;100.00
29315;BME280;16320;53.954;9.506;2022-09-29T21:10:46;100532.50;;;10.11;100.00
29315;BME280;16320;53.954;9.506;2022-09-29T21:13:53;100533.31;;;10.12;100.00
29315;BME280;16320;53.954;9.506;2022-09-29T21:17:03;100535.78;;;10.15;100.00
29315;BME280;16320;53.954;9.506;2022-09-29T21:20:08;100538.41;;;10.15;100.00
29315;BME280;16320;53.954;9.506;2022-09-29T21:23:13;100541.81;;;10.17;100.00
29315;BME280;16320;53.954;9.506;2022-09-29T21:26:20;100543.34;;;10.21;100.00
29315;BME280;16320;53.954;9.506;2022-09-29T21:29:26;100545.06;;;10.22;100.00
29315;BME280;16320;53.954;9.506;2022-09-29T21:32:31;100546.56;;;10.26;100.00
29315;BME280;16320;53.954;9.506;2022-09-29T21:35:36;100550.13;;;10.25;100.00
29315;BME280;16320;53.954;9.506;2022-09-29T21:38:42;100558.78;;;10.27;100.00
29315;BME280;16320;53.954;9.506;2022-09-29T21:41:47;100564.88;;;10.27;100.00
29315;BME280;16320;53.954;9.506;2022-09-29T21:44:51;100565.72;;;10.28;100.00
29315;BME280;16320;53.954;9.506;2022-09-29T21:48:01;100566.66;;;10.27;100.00
29315;BME280;16320;53.954;9.506;2022-09-29T21:51:18;100576.22;;;10.28;100.00
29315;BME280;16320;53.954;9.506;2022-09-29T21:54:26;100583.16;;;10.29;100.00
29315;BME280;16320;53.954;9.506;2022-09-29T21:57:30;100582.25;;;10.30;100.00
29315;BME280;16320;53.954;9.506;2022-09-29T22:00:37;100576.03;;;10.31;100.00
29315;BME280;16320;53.954;9.506;2022-09-29T22:03:48;100578.66;;;10.31;100.00
29315;BME280;16320;53.954;9.506;2022-09-29T22:06:52;100569.13;;;10.30;100.00
29315;BME280;16320;53.954;9.506;2022-09-29T22:09:57;100570.88;;;10.30;100.00
29315;BME280;16320;53.954;9.506;2022-09-29T22:13:02;100582.31;;;10.29;100.00
29315;BME280;16320;53.954;9.506;2022-09-29T22:16:10;100582.47;;;10.25;100.00
29315;BME280;16320;53.954;9.506;2022-09-29T22:19:16;100583.41;;;10.24;100.00
29315;BME280;16320;53.954;9.506;2022-09-29T22:22:28;100587.81;;;10.24;100.00
29315;BME280;16320;53.954;9.506;2022-09-29T22:25:33;100583.47;;;10.23;100.00
29315;BME280;16320;53.954;9.506;2022-09-29T22:28:38;100591.34;;;10.23;100.00
29315;BME280;16320;53.954;9.506;2022-09-29T22:31:43;100586.09;;;10.23;100.00
29315;BME280;16320;53.954;9.506;2022-09-29T22:34:50;100588.72;;;10.23;100.00
29315;BME280;16320;53.954;9.506;2022-09-29T22:37:55;100595.69;;;10.24;100.00
29315;BME280;16320;53.954;9.506;2022-09-29T22:41:11;100596.53;;;10.24;100.00
29315;BME280;16320;53.954;9.506;2022-09-29T22:44:20;100589.69;;;10.22;100.00
29315;BME280;16320;53.954;9.506;2022-09-29T22:47:28;100599.38;;;10.20;100.00
29315;BME280;16320;53.954;9.506;2022-09-29T22:50:32;100592.31;;;10.22;100.00
29315;BME280;16320;53.954;9.506;2022-09-29T22:53:38;100599.22;;;10.23;100.00
29315;BME280;16320;53.954;9.506;2022-09-29T22:56:43;100594.94;;;10.22;100.00
29315;BME280;16320;53.954;9.506;2022-09-29T22:59:48;100592.31;;;10.22;100.00
29315;BME280;16320;53.954;9.506;2022-09-29T23:02:53;100594.06;;;10.21;100.00
29315;BME280;16320;53.954;9.506;2022-09-29T23:05:59;100592.31;;;10.22;100.00
29315;BME280;16320;53.954;9.506;2022-09-29T23:09:05;100602.81;;;10.22;100.00
29315;BME280;16320;53.954;9.506;2022-09-29T23:12:10;100599.53;;;10.17;100.00
29315;BME280;16320;53.954;9.506;2022-09-29T23:15:22;100597.63;;;10.20;100.00
29315;BME280;16320;53.954;9.506;2022-09-29T23:18:33;100602.81;;;10.22;100.00
29315;BME280;16320;53.954;9.506;2022-09-29T23:21:38;100604.47;;;10.23;100.00
29315;BME280;16320;53.954;9.506;2022-09-29T23:24:43;100602.81;;;10.22;100.00
29315;BME280;16320;53.954;9.506;2022-09-29T23:27:48;100608.88;;;10.22;100.00
29315;BME280;16320;53.954;9.506;2022-09-29T23:30:53;100608.88;;;10.22;100.00
29315;BME280;16320;53.954;9.506;2022-09-29T23:33:59;100608.06;;;10.22;100.00
29315;BME280;16320;53.954;9.506;2022-09-29T23:37:04;100607.94;;;10.23;100.00
29315;BME280;16320;53.954;9.506;2022-09-29T23:40:09;100610.56;;;10.23;100.00
29315;BME280;16320;53.954;9.506;2022-09-29T23:43:13;100610.69;;;10.22;100.00
29315;BME280;16320;53.954;9.506;2022-09-29T23:46:18;100605.50;;;10.20;100.00
29315;BME280;16320;53.954;9.506;2022-09-29T23:49:26;100610.75;;;10.20;100.00
29315;BME280;16320;53.954;9.506;2022-09-29T23:52:32;100606.34;;;10.21;100.00
29315;BME280;16320;53.954;9.506;2022-09-29T23:55:38;100602.97;;;10.19;100.00
29315;BME280;16320;53.954;9.506;2022-09-29T23:58:43;100609.88;;;10.20;100.00
